createdAt,value
2023-02-21T00:00:30.428Z,97452.34
2023-02-21T00:03:20.761Z,97448.91
2023-02-21T00:06:06.025Z,97441.22
2023-02-21T00:08:51.247Z,97434.63
2023-02-21T00:11:36.280Z,97436.41
2023-02-21T00:14:21.477Z,97442.63
2023-02-21T00:17:06.712Z,97448.53
2023-02-21T00:19:51.923Z,97441.66
2023-02-21T00:22:37.116Z,97429.25
2023-02-21T00:25:22.393Z,97446.00
2023-02-21T00:28:07.695Z,97456.47
2023-02-21T00:30:52.990Z,97448.09
2023-02-21T00:33:38.094Z,97458.03
2023-02-21T00:36:23.295Z,97453.09
2023-02-21T00:39:08.512Z,97443.59
2023-02-21T00:41:53.782Z,97445.22
2023-02-21T00:44:38.941Z,97448.22
2023-02-21T00:47:24.215Z,97448.53
2023-02-21T00:53:12.379Z,97450.41
2023-02-21T00:55:57.660Z,97438.59
2023-02-21T00:58:42.821Z,97430.88
2023-02-21T01:01:28.183Z,97428.81
2023-02-21T01:04:13.621Z,97431.41
2023-02-21T01:06:58.794Z,97433.81
2023-02-21T01:09:43.952Z,97434.63
2023-02-21T01:12:29.136Z,97438.75
2023-02-21T01:15:14.380Z,97442.47
2023-02-21T01:17:59.530Z,97444.34
2023-02-21T01:20:44.767Z,97442.72
2023-02-21T01:23:29.995Z,97430.38
2023-02-21T01:26:15.230Z,97425.94
2023-02-21T01:29:00.449Z,97430.66
2023-02-21T01:31:45.581Z,97432.56
2023-02-21T01:34:30.989Z,97436.97
2023-02-21T01:37:16.065Z,97436.97
2023-02-21T01:40:01.225Z,97441.53
2023-02-21T01:42:47.650Z,97438.91
2023-02-21T01:45:36.006Z,97444.81
2023-02-21T01:48:21.222Z,97437.69
2023-02-21T01:51:06.522Z,97435.19
2023-02-21T01:53:51.694Z,97440.28
2023-02-21T01:56:36.784Z,97440.72
2023-02-21T01:59:21.969Z,97427.34
2023-02-21T02:02:11.809Z,97423.06
2023-02-21T02:04:56.966Z,97412.75
2023-02-21T02:07:42.143Z,97411.09
2023-02-21T02:10:27.267Z,97407.53
2023-02-21T02:12:59.866Z,97417.84
2023-02-21T02:15:26.289Z,97418.53
2023-02-21T02:18:11.732Z,97416.03
2023-02-21T02:20:56.701Z,97422.09
2023-02-21T02:23:41.403Z,97415.06
2023-02-21T02:26:20.167Z,97417.69
2023-02-21T02:28:52.806Z,97413.44
2023-02-21T02:31:30.523Z,97420.59
2023-02-21T02:33:57.184Z,97413.06
2023-02-21T02:36:50.216Z,97418.97
2023-02-21T02:39:19.911Z,97418.81
2023-02-21T02:41:55.544Z,97415.38
2023-02-21T02:48:02.164Z,97413.72
2023-02-21T02:50:28.965Z,97419.09
2023-02-21T02:52:56.321Z,97417.31
2023-02-21T02:55:25.164Z,97416.63
2023-02-21T02:57:51.807Z,97407.00
2023-02-21T03:00:18.743Z,97407.16
2023-02-21T03:02:58.875Z,97408.13
2023-02-21T03:05:35.318Z,97409.75
2023-02-21T03:08:01.851Z,97403.72
2023-02-21T03:10:39.383Z,97407.81
2023-02-21T03:13:13.123Z,97397.66
2023-02-21T03:15:39.580Z,97393.53
2023-02-21T03:18:07.655Z,97396.00
2023-02-21T03:20:34.251Z,97396.00
2023-02-21T03:23:01.359Z,97399.59
2023-02-21T03:25:27.908Z,97395.19
2023-02-21T03:27:54.401Z,97379.50
2023-02-21T03:30:20.991Z,97381.28
2023-02-21T03:32:51.912Z,97387.19
2023-02-21T03:35:19.128Z,97389.50
2023-02-21T03:37:49.743Z,97392.94
2023-02-21T03:40:18.636Z,97392.81
2023-02-21T03:42:45.352Z,97398.44
2023-02-21T03:45:11.891Z,97403.66
2023-02-21T03:47:38.348Z,97405.31
2023-02-21T03:50:05.172Z,97398.72
2023-02-21T03:52:31.674Z,97398.44
2023-02-21T03:55:30.104Z,97405.31
2023-02-21T03:57:56.597Z,97414.13
2023-02-21T04:00:23.256Z,97402.78
2023-02-21T04:02:49.839Z,97402.69
2023-02-21T04:05:17.308Z,97396.50
2023-02-21T04:07:43.808Z,97399.25
2023-02-21T04:10:10.445Z,97402.56
2023-02-21T04:12:36.937Z,97403.09
2023-02-21T04:15:03.571Z,97397.19
2023-02-21T04:17:30.104Z,97391.66
2023-02-21T04:19:56.698Z,97397.03
2023-02-21T04:22:23.271Z,97393.13
2023-02-21T04:24:49.784Z,97391.78
2023-02-21T04:27:16.445Z,97400.84
2023-02-21T04:29:42.969Z,97391.66
2023-02-21T04:32:10.224Z,97390.69
2023-02-21T04:34:36.803Z,97393.97
2023-02-21T04:37:03.340Z,97392.03
2023-02-21T04:39:31.260Z,97406.91
2023-02-21T04:41:57.726Z,97394.63
2023-02-21T04:44:24.458Z,97390.75
2023-02-21T04:46:50.968Z,97383.88
2023-02-21T04:49:17.503Z,97388.44
2023-02-21T04:51:43.962Z,97388.69
2023-02-21T04:54:12.400Z,97381.66
2023-02-21T04:56:40.273Z,97382.03
2023-02-21T04:59:06.862Z,97388.41
2023-02-21T05:01:33.440Z,97390.84
2023-02-21T05:04:00.380Z,97386.75
2023-02-21T05:06:27.872Z,97385.63
2023-02-21T05:08:54.520Z,97377.09
2023-02-21T05:11:21.659Z,97383.97
2023-02-21T05:13:48.277Z,97380.09
2023-02-21T05:16:15.014Z,97377.78
2023-02-21T05:18:42.182Z,97380.31
2023-02-21T05:21:08.768Z,97380.75
2023-02-21T05:23:35.828Z,97375.84
2023-02-21T05:26:12.579Z,97375.16
2023-02-21T05:28:39.883Z,97374.78
2023-02-21T05:31:06.656Z,97372.16
2023-02-21T05:33:33.380Z,97372.16
2023-02-21T05:36:00.041Z,97374.94
2023-02-21T05:38:27.196Z,97373.00
2023-02-21T05:40:53.800Z,97379.72
2023-02-21T05:43:20.321Z,97373.38
2023-02-21T05:45:46.914Z,97380.38
2023-02-21T05:48:13.458Z,97379.41
2023-02-21T05:50:40.076Z,97383.00
2023-02-21T05:53:06.911Z,97379.28
2023-02-21T05:55:33.567Z,97387.28
2023-02-21T05:58:00.097Z,97380.38
2023-02-21T06:00:28.263Z,97388.41
2023-02-21T06:02:54.964Z,97383.97
2023-02-21T06:05:21.817Z,97383.16
2023-02-21T06:07:48.594Z,97381.06
2023-02-21T06:10:15.396Z,97379.94
2023-02-21T06:12:41.881Z,97376.19
2023-02-21T06:15:08.837Z,97380.97
2023-02-21T06:17:38.500Z,97373.97
2023-02-21T06:20:05.719Z,97376.44
2023-02-21T06:22:32.317Z,97376.31
2023-02-21T06:24:58.886Z,97379.59
2023-02-21T06:27:25.421Z,97373.38
2023-02-21T06:29:51.947Z,97371.94
2023-02-21T06:32:18.523Z,97378.31
2023-02-21T06:34:45.312Z,97376.00
2023-02-21T06:37:11.874Z,97380.94
2023-02-21T06:39:38.927Z,97370.31
2023-02-21T06:42:06.392Z,97372.41
2023-02-21T06:44:33.077Z,97377.63
2023-02-21T06:46:59.614Z,97376.97
2023-02-21T06:49:26.151Z,97366.34
2023-02-21T06:51:52.702Z,97370.09
2023-02-21T06:54:19.291Z,97372.09
2023-02-21T06:56:45.927Z,97371.13
2023-02-21T06:59:12.433Z,97370.97
2023-02-21T07:01:38.960Z,97376.06
2023-02-21T07:04:05.490Z,97374.13
2023-02-21T07:06:33.633Z,97374.94
2023-02-21T07:09:00.258Z,97381.69
2023-02-21T07:11:26.787Z,97383.19
2023-02-21T07:13:54.200Z,97372.41
2023-02-21T07:16:21.004Z,97369.03
2023-02-21T07:18:47.579Z,97372.31
2023-02-21T07:21:14.961Z,97376.97
2023-02-21T07:23:43.421Z,97378.09
2023-02-21T07:26:09.975Z,97379.59
2023-02-21T07:28:36.445Z,97377.63
2023-02-21T07:31:03.037Z,97377.03
2023-02-21T07:33:29.524Z,97378.44
2023-02-21T07:35:56.571Z,97382.75
2023-02-21T07:38:26.380Z,97389.06
2023-02-21T07:40:56.920Z,97389.38
2023-02-21T07:43:24.544Z,97382.75
2023-02-21T07:45:51.127Z,97388.50
2023-02-21T07:48:17.637Z,97394.28
2023-02-21T07:50:44.696Z,97397.22
2023-02-21T07:53:11.387Z,97392.66
2023-02-21T07:55:37.944Z,97392.66
2023-02-21T07:58:04.454Z,97388.44
2023-02-21T08:00:31.237Z,97389.19
2023-02-21T08:02:57.824Z,97384.66
2023-02-21T08:05:24.321Z,97374.59
2023-02-21T08:07:51.027Z,97376.41
2023-02-21T08:10:21.914Z,97377.00
2023-02-21T08:12:48.502Z,97380.19
2023-02-21T08:15:19.674Z,97378.72
2023-02-21T08:17:50.024Z,97379.91
2023-02-21T08:20:16.736Z,97370.09
2023-02-21T08:22:43.322Z,97370.25
2023-02-21T08:25:13.833Z,97371.94
2023-02-21T08:27:41.038Z,97378.53
2023-02-21T08:30:08.894Z,97377.72
2023-02-21T08:32:35.568Z,97383.97
2023-02-21T08:35:03.726Z,97382.16
2023-02-21T08:37:33.174Z,97383.47
2023-02-21T08:39:59.798Z,97377.72
2023-02-21T08:42:26.388Z,97373.16
2023-02-21T08:44:52.954Z,97363.78
2023-02-21T08:47:19.490Z,97372.31
2023-02-21T08:49:47.429Z,97369.06
2023-02-21T08:52:14.394Z,97372.00
2023-02-21T08:54:40.897Z,97364.78
2023-02-21T08:57:07.444Z,97352.78
2023-02-21T08:59:35.070Z,97363.72
2023-02-21T09:02:01.752Z,97370.94
2023-02-21T09:04:28.501Z,97374.16
2023-02-21T09:06:55.548Z,97372.69
2023-02-21T09:09:22.475Z,97372.69
2023-02-21T09:11:49.525Z,97374.69
2023-02-21T09:14:16.562Z,97370.75
2023-02-21T09:16:43.364Z,97377.66
2023-02-21T09:19:09.932Z,97374.25
2023-02-21T09:21:36.426Z,97372.75
2023-02-21T09:24:03.109Z,97385.09
2023-02-21T09:26:32.064Z,97374.09
2023-02-21T09:28:58.714Z,97376.91
2023-02-21T09:31:25.258Z,97380.19
2023-02-21T09:33:51.838Z,97372.28
2023-02-21T09:36:23.796Z,97378.06
2023-02-21T09:38:51.031Z,97371.84
2023-02-21T09:41:18.199Z,97375.63
2023-02-21T09:43:46.081Z,97373.81
2023-02-21T09:46:31.414Z,97379.41
2023-02-21T09:48:58.004Z,97373.63
2023-02-21T09:51:25.271Z,97376.75
2023-02-21T09:53:51.879Z,97374.41
2023-02-21T09:56:21.529Z,97381.53
2023-02-21T09:58:48.073Z,97381.19
2023-02-21T10:01:26.004Z,97376.56
2023-02-21T10:03:55.531Z,97376.41
2023-02-21T10:06:25.228Z,97371.63
2023-02-21T10:08:57.777Z,97374.59
2023-02-21T10:11:37.440Z,97378.25
2023-02-21T10:14:23.737Z,97373.59
2023-02-21T10:16:58.738Z,97380.53
2023-02-21T10:19:51.693Z,97383.47
2023-02-21T10:22:25.864Z,97380.66
2023-02-21T10:24:52.547Z,97381.16
2023-02-21T10:27:20.419Z,97383.13
2023-02-21T10:29:56.921Z,97379.13
2023-02-21T10:32:24.709Z,97381.94
2023-02-21T10:34:51.322Z,97388.66
2023-02-21T10:37:36.154Z,97397.25
2023-02-21T10:40:07.626Z,97392.28
2023-02-21T10:42:39.804Z,97390.34
2023-02-21T10:45:06.615Z,97395.94
2023-02-21T10:47:42.268Z,97398.84
2023-02-21T10:50:09.436Z,97397.16
2023-02-21T10:52:46.941Z,97394.16
2023-02-21T10:55:31.942Z,97399.19
2023-02-21T10:57:59.814Z,97396.97
2023-02-21T11:00:48.580Z,97401.59
2023-02-21T11:03:15.177Z,97395.97
2023-02-21T11:05:45.405Z,97390.41
2023-02-21T11:08:11.896Z,97390.88
2023-02-21T11:10:42.543Z,97393.41
2023-02-21T11:13:16.921Z,97391.59
2023-02-21T11:15:44.117Z,97394.84
2023-02-21T11:18:13.690Z,97390.91
2023-02-21T11:20:40.220Z,97398.41
2023-02-21T11:23:17.889Z,97386.94
2023-02-21T11:25:44.402Z,97392.75
2023-02-21T11:28:10.947Z,97387.25
2023-02-21T11:30:38.215Z,97385.25
2023-02-21T11:33:05.312Z,97385.38
2023-02-21T11:35:36.427Z,97377.94
2023-02-21T11:38:05.025Z,97373.84
2023-02-21T11:40:33.130Z,97376.22
2023-02-21T11:43:19.768Z,97372.44
2023-02-21T11:45:53.638Z,97372.94
2023-02-21T11:48:20.852Z,97364.22
2023-02-21T11:50:49.896Z,97368.75
2023-02-21T11:53:23.949Z,97366.66
2023-02-21T11:56:02.556Z,97369.81
2023-02-21T11:58:31.717Z,97364.59
2023-02-21T12:01:02.560Z,97363.63
2023-02-21T12:03:36.255Z,97365.63
2023-02-21T12:06:08.767Z,97359.34
2023-02-21T12:08:44.573Z,97360.97
2023-02-21T12:11:11.171Z,97349.38
2023-02-21T12:13:40.686Z,97342.94
2023-02-21T12:16:25.578Z,97340.44
2023-02-21T12:19:07.391Z,97335.78
2023-02-21T12:21:38.129Z,97341.41
2023-02-21T12:24:24.345Z,97326.44
2023-02-21T12:27:04.525Z,97332.25
2023-02-21T12:29:31.108Z,97333.25
2023-02-21T12:31:57.661Z,97328.91
2023-02-21T12:34:27.252Z,97323.25
2023-02-21T12:36:56.865Z,97316.63
2023-02-21T12:39:42.198Z,97316.25
2023-02-21T12:42:11.969Z,97310.25
2023-02-21T12:45:00.836Z,97311.66
2023-02-21T12:47:33.026Z,97310.78
2023-02-21T12:50:13.731Z,97300.47
2023-02-21T12:52:52.067Z,97301.03
2023-02-21T12:55:20.978Z,97297.88
2023-02-21T12:57:56.566Z,97289.84
2023-02-21T13:00:27.552Z,97284.06
2023-02-21T13:02:58.622Z,97284.59
2023-02-21T13:05:33.736Z,97278.72
2023-02-21T13:08:01.519Z,97280.13
2023-02-21T13:10:29.594Z,97271.97
2023-02-21T13:13:01.468Z,97270.56
2023-02-21T13:15:29.747Z,97265.19
2023-02-21T13:17:59.302Z,97264.50
2023-02-21T13:20:26.605Z,97258.19
2023-02-21T13:22:56.148Z,97256.28
2023-02-21T13:25:37.882Z,97257.94
2023-02-21T13:28:10.423Z,97247.28
2023-02-21T13:30:49.162Z,97251.13
2023-02-21T13:33:24.804Z,97249.28
2023-02-21T13:35:51.402Z,97240.63
2023-02-21T13:38:18.496Z,97245.59
2023-02-21T13:40:50.981Z,97244.44
2023-02-21T13:43:30.707Z,97239.53
2023-02-21T13:46:16.148Z,97239.25
2023-02-21T13:48:42.651Z,97236.78
2023-02-21T13:51:09.159Z,97236.47
2023-02-21T13:53:55.624Z,97236.03
2023-02-21T13:56:24.745Z,97239.66
2023-02-21T13:58:51.436Z,97240.69
2023-02-21T14:01:17.973Z,97235.25
2023-02-21T14:03:45.480Z,97230.06
2023-02-21T14:06:12.420Z,97232.34
2023-02-21T14:08:46.429Z,97221.63
2023-02-21T14:11:20.796Z,97223.63
2023-02-21T14:13:47.211Z,97226.97
2023-02-21T14:16:14.631Z,97217.84
2023-02-21T14:18:53.851Z,97222.81
2023-02-21T14:21:37.388Z,97217.03
2023-02-21T14:24:09.822Z,97215.78
2023-02-21T14:26:39.446Z,97209.00
2023-02-21T14:29:08.990Z,97207.66
2023-02-21T14:31:48.582Z,97205.28
2023-02-21T14:34:15.574Z,97211.63
2023-02-21T14:36:42.114Z,97207.19
2023-02-21T14:39:08.678Z,97211.25
2023-02-21T14:41:52.889Z,97209.63
2023-02-21T14:44:23.800Z,97208.81
2023-02-21T14:46:50.302Z,97209.25
2023-02-21T14:49:35.375Z,97208.19
2023-02-21T14:52:21.962Z,97204.75
2023-02-21T14:55:00.649Z,97198.00
2023-02-21T14:57:35.187Z,97203.47
2023-02-21T15:00:13.916Z,97206.28
2023-02-21T15:02:43.446Z,97203.47
2023-02-21T15:05:28.731Z,97195.81
2023-02-21T15:07:57.560Z,97199.75
2023-02-21T15:10:25.602Z,97201.38
2023-02-21T15:12:56.075Z,97208.00
2023-02-21T15:15:30.327Z,97200.88
2023-02-21T15:18:09.091Z,97203.84
2023-02-21T15:20:36.793Z,97206.09
2023-02-21T15:23:10.392Z,97205.84
2023-02-21T15:25:36.912Z,97204.53
2023-02-21T15:28:04.830Z,97204.47
2023-02-21T15:30:32.930Z,97201.91
2023-02-21T15:33:06.064Z,97202.97
2023-02-21T15:35:33.881Z,97200.81
2023-02-21T15:38:00.671Z,97199.25
2023-02-21T15:40:27.206Z,97194.91
2023-02-21T15:42:53.735Z,97187.56
2023-02-21T15:45:22.346Z,97184.00
2023-02-21T15:47:48.911Z,97179.69
2023-02-21T15:50:32.744Z,97181.56
2023-02-21T15:53:11.318Z,97175.66
2023-02-21T15:55:37.797Z,97178.19
2023-02-21T15:58:04.337Z,97167.78
2023-02-21T16:00:30.885Z,97181.25
2023-02-21T16:03:16.212Z,97174.81
2023-02-21T16:05:42.739Z,97171.28
2023-02-21T16:08:11.369Z,97170.88
2023-02-21T16:10:39.841Z,97173.41
2023-02-21T16:13:06.380Z,97174.59
2023-02-21T16:15:33.476Z,97170.88
2023-02-21T16:18:03.447Z,97163.06
2023-02-21T16:20:31.321Z,97172.16
2023-02-21T16:23:16.564Z,97167.75
2023-02-21T16:25:56.277Z,97163.50
2023-02-21T16:28:22.827Z,97166.47
2023-02-21T16:30:49.438Z,97171.91
2023-02-21T16:33:15.927Z,97167.97
2023-02-21T16:35:42.706Z,97165.84
2023-02-21T16:38:17.270Z,97160.56
2023-02-21T16:40:43.852Z,97163.00
2023-02-21T16:43:15.893Z,97172.63
2023-02-21T16:45:42.592Z,97163.91
2023-02-21T16:48:14.081Z,97165.63
2023-02-21T16:50:40.721Z,97169.50
2023-02-21T16:53:07.474Z,97173.38
2023-02-21T16:55:33.977Z,97174.63
2023-02-21T16:58:02.049Z,97179.16
2023-02-21T17:00:28.596Z,97176.78
2023-02-21T17:02:55.180Z,97174.75
2023-02-21T17:05:21.938Z,97172.22
2023-02-21T17:07:49.612Z,97170.38
2023-02-21T17:10:16.284Z,97165.72
2023-02-21T17:12:42.821Z,97163.38
2023-02-21T17:15:11.116Z,97168.53
2023-02-21T17:17:38.252Z,97169.94
2023-02-21T17:20:05.617Z,97172.19
2023-02-21T17:22:32.237Z,97173.41
2023-02-21T17:24:58.847Z,97177.59
2023-02-21T17:27:25.406Z,97178.16
2023-02-21T17:29:51.956Z,97174.34
2023-02-21T17:32:18.609Z,97175.47
2023-02-21T17:34:45.151Z,97175.09
2023-02-21T17:37:11.734Z,97177.09
2023-02-21T17:39:38.281Z,97182.03
2023-02-21T17:42:04.872Z,97178.66
2023-02-21T17:44:31.698Z,97181.53
2023-02-21T17:46:58.173Z,97184.28
2023-02-21T17:49:26.483Z,97181.25
2023-02-21T17:51:53.279Z,97183.22
2023-02-21T17:54:21.322Z,97183.78
2023-02-21T17:56:47.957Z,97189.00
2023-02-21T17:59:14.886Z,97185.59
2023-02-21T18:01:41.454Z,97189.31
2023-02-21T18:04:08.337Z,97186.13
2023-02-21T18:06:34.869Z,97190.16
2023-02-21T18:09:02.121Z,97183.44
2023-02-21T18:11:28.650Z,97190.59
2023-02-21T18:13:55.847Z,97187.91
2023-02-21T18:16:22.403Z,97189.16
2023-02-21T18:18:49.180Z,97189.69
2023-02-21T18:21:16.248Z,97184.22
2023-02-21T18:23:43.623Z,97181.75
2023-02-21T18:26:10.186Z,97183.69
2023-02-21T18:28:36.749Z,97184.66
2023-02-21T18:31:03.452Z,97187.66
2023-02-21T18:33:30.868Z,97183.81
2023-02-21T18:35:57.670Z,97180.66
2023-02-21T18:38:24.397Z,97187.50
2023-02-21T18:40:51.203Z,97182.84
2023-02-21T18:43:19.416Z,97184.66
2023-02-21T18:45:46.767Z,97183.16
2023-02-21T18:48:13.753Z,97176.25
2023-02-21T18:50:40.298Z,97185.59
2023-02-21T18:53:06.847Z,97180.66
2023-02-21T18:55:33.507Z,97183.41
2023-02-21T18:58:00.217Z,97186.13
2023-02-21T19:00:27.025Z,97177.63
2023-02-21T19:02:53.519Z,97176.94
2023-02-21T19:05:21.583Z,97175.13
2023-02-21T19:07:48.074Z,97170.75
2023-02-21T19:10:15.849Z,97173.59
2023-02-21T19:12:42.367Z,97166.16
2023-02-21T19:15:09.038Z,97167.13
2023-02-21T19:17:35.713Z,97167.69
2023-02-21T19:20:02.664Z,97169.47
2023-02-21T19:22:29.484Z,97170.53
2023-02-21T19:24:57.485Z,97165.41
2023-02-21T19:27:24.053Z,97162.22
2023-02-21T19:29:51.289Z,97165.50
2023-02-21T19:32:19.330Z,97165.06
2023-02-21T19:34:50.213Z,97160.81
2023-02-21T19:37:17.001Z,97160.00
2023-02-21T19:39:43.760Z,97162.47
2023-02-21T19:42:11.084Z,97161.25
2023-02-21T19:44:37.712Z,97157.97
2023-02-21T19:47:04.460Z,97156.03
2023-02-21T19:49:30.928Z,97156.41
2023-02-21T19:51:58.264Z,97162.00
2023-02-21T19:54:25.255Z,97161.59
2023-02-21T19:56:51.783Z,97164.75
2023-02-21T19:59:18.945Z,97163.84
2023-02-21T20:01:45.474Z,97153.66
2023-02-21T20:04:12.026Z,97169.03
2023-02-21T20:06:38.729Z,97154.19
2023-02-21T20:09:06.187Z,97158.28
2023-02-21T20:11:32.699Z,97164.03
2023-02-21T20:13:59.842Z,97163.22
2023-02-21T20:16:28.207Z,97164.19
2023-02-21T20:18:54.956Z,97157.97
2023-02-21T20:21:22.362Z,97170.22
2023-02-21T20:23:49.084Z,97164.34
2023-02-21T20:26:15.862Z,97159.25
2023-02-21T20:28:42.459Z,97161.03
2023-02-21T20:31:10.966Z,97157.47
2023-02-21T20:33:37.842Z,97163.00
2023-02-21T20:36:04.766Z,97158.72
2023-02-21T20:38:31.329Z,97155.16
2023-02-21T20:40:58.092Z,97149.94
2023-02-21T20:43:25.563Z,97153.81
2023-02-21T20:45:52.621Z,97157.34
2023-02-21T20:48:19.193Z,97157.34
2023-02-21T20:50:46.442Z,97161.66
2023-02-21T20:53:13.102Z,97154.47
2023-02-21T20:55:40.305Z,97152.00
2023-02-21T20:58:06.904Z,97149.25
2023-02-21T21:00:36.410Z,97148.59
2023-02-21T21:03:03.994Z,97149.53
2023-02-21T21:05:30.867Z,97144.59
2023-02-21T21:07:58.195Z,97146.00
2023-02-21T21:10:24.942Z,97142.88
2023-02-21T21:12:51.659Z,97145.50
2023-02-21T21:15:19.385Z,97143.84
2023-02-21T21:17:46.712Z,97136.72
2023-02-21T21:20:17.688Z,97141.41
2023-02-21T21:22:44.450Z,97132.91
2023-02-21T21:25:11.175Z,97127.69
2023-02-21T21:27:39.868Z,97132.25
2023-02-21T21:30:07.457Z,97130.75
2023-02-21T21:32:34.651Z,97134.84
2023-02-21T21:35:05.445Z,97127.31
2023-02-21T21:37:32.031Z,97125.56
2023-02-21T21:39:58.554Z,97123.81
2023-02-21T21:42:26.411Z,97123.41
2023-02-21T21:44:56.372Z,97120.13
2023-02-21T21:47:23.389Z,97112.16
2023-02-21T21:49:50.234Z,97118.19
2023-02-21T21:52:18.291Z,97111.06
2023-02-21T21:54:45.673Z,97112.97
2023-02-21T21:57:18.779Z,97114.25
2023-02-21T21:59:45.410Z,97112.22
2023-02-21T22:02:11.889Z,97103.41
2023-02-21T22:04:38.559Z,97099.16
2023-02-21T22:07:05.506Z,97103.03
2023-02-21T22:09:32.050Z,97097.41
2023-02-21T22:11:58.536Z,97101.28
2023-02-21T22:14:25.181Z,97094.41
2023-02-21T22:16:52.321Z,97097.69
2023-02-21T22:19:22.437Z,97094.13
2023-02-21T22:21:49.157Z,97094.56
2023-02-21T22:24:20.909Z,97091.28
2023-02-21T22:26:47.473Z,97086.72
2023-02-21T22:29:18.445Z,97079.72
2023-02-21T22:31:46.454Z,97085.91
2023-02-21T22:34:23.137Z,97077.69
2023-02-21T22:36:53.643Z,97078.81
2023-02-21T22:39:20.380Z,97078.53
2023-02-21T22:41:48.864Z,97078.16
2023-02-21T22:44:15.943Z,97075.97
2023-02-21T22:46:43.511Z,97076.41
2023-02-21T22:49:10.403Z,97071.75
2023-02-21T22:51:36.969Z,97079.47
2023-02-21T22:54:03.839Z,97063.81
2023-02-21T22:56:30.693Z,97072.75
2023-02-21T22:58:57.790Z,97070.56
2023-02-21T23:01:26.613Z,97065.50
2023-02-21T23:03:53.594Z,97063.59
2023-02-21T23:06:20.312Z,97061.78
2023-02-21T23:08:47.784Z,97059.34
2023-02-21T23:11:18.491Z,97058.78
2023-02-21T23:13:46.562Z,97058.53
2023-02-21T23:16:18.514Z,97058.25
2023-02-21T23:18:45.037Z,97049.63
2023-02-21T23:21:11.509Z,97045.78
2023-02-21T23:23:38.173Z,97041.97
2023-02-21T23:26:08.770Z,97045.53
2023-02-21T23:28:35.442Z,97038.97
2023-02-21T23:31:02.035Z,97041.69
2023-02-21T23:33:30.142Z,97040.31
2023-02-21T23:35:56.983Z,97031.28
2023-02-21T23:38:24.142Z,97036.91
2023-02-21T23:40:56.394Z,97041.69
2023-02-21T23:43:25.289Z,97035.66
2023-02-21T23:45:52.445Z,97037.72
2023-02-21T23:48:19.029Z,97032.78
2023-02-21T23:50:46.615Z,97031.00
2023-02-21T23:53:15.305Z,97027.72
2023-02-21T23:55:42.154Z,97024.00
2023-02-21T23:58:10.736Z,97023.88
